sensor_id;sensor_type;location;lat;lon;timestamp;pressure;altitude;pressure_sealevel;temperature;humidity
18784;BME280;9520;50.954;6.968;2023-03-18T00:00:45;100325.31;;;18.01;48.52
18784;BME280;9520;50.954;6.968;2023-03-18T00:01:57;100329.25;;;17.94;48.81
18784;BME280;9520;50.954;6.968;2023-03-18T00:03:28;100325.25;;;18.02;48.50
18784;BME280;9520;50.954;6.968;2023-03-18T00:04:46;100322.19;;;18.10;48.49
18784;BME280;9520;50.954;6.968;2023-03-18T00:05:32;100313.06;;;17.97;48.33
18784;BME280;9520;50.954;6.968;2023-03-18T00:06:03;100326.66;;;18.09;48.46
18784;BME280;9520;50.954;6.968;2023-03-18T00:06:25;100291.44;;;17.86;48.60
18784;BME280;9520;50.954;6.968;2023-03-18T00:06:47;100332.63;;;18.15;48.37
18784;BME280;9520;50.954;6.968;2023-03-18T00:07:10;100330.44;;;18.05;48.49
18784;BME280;9520;50.954;6.968;2023-03-18T00:07:38;100302.72;;;17.74;48.65
18784;BME280;9520;50.954;6.968;2023-03-18T00:08:06;100295.66;;;17.73;48.76
18784;BME280;9520;50.954;6.968;2023-03-18T00:08:29;100335.91;;;18.02;48.65
18784;BME280;9520;50.954;6.968;2023-03-18T00:08:54;100331.50;;;18.01;48.44
18784;BME280;9520;50.954;6.968;2023-03-18T00:09:18;100297.59;;;17.86;48.42
18784;BME280;9520;50.954;6.968;2023-03-18T00:09:40;100323.19;;;18.07;48.46
18784;BME280;9520;50.954;6.968;2023-03-18T00:10:06;100323.28;;;18.06;48.49
18784;BME280;9520;50.954;6.968;2023-03-18T00:10:32;100348.41;;;18.19;48.54
18784;BME280;9520;50.954;6.968;2023-03-18T00:10:55;100331.66;;;18.16;48.11
18784;BME280;9520;50.954;6.968;2023-03-18T00:11:20;100318.03;;;18.04;48.29
18784;BME280;9520;50.954;6.968;2023-03-18T00:11:42;100333.31;;;18.18;48.27
18784;BME280;9520;50.954;6.968;2023-03-18T00:12:05;100344.56;;;18.25;48.26
18784;BME280;9520;50.954;6.968;2023-03-18T00:12:30;100338.66;;;18.18;48.45
18784;BME280;9520;50.954;6.968;2023-03-18T00:12:55;100341.78;;;18.26;48.28
18784;BME280;9520;50.954;6.968;2023-03-18T00:13:18;100295.94;;;18.01;48.40
18784;BME280;9520;50.954;6.968;2023-03-18T00:13:42;100316.69;;;18.13;48.36
18784;BME280;9520;50.954;6.968;2023-03-18T00:14:07;100295.94;;;18.01;48.35
18784;BME280;9520;50.954;6.968;2023-03-18T00:14:30;100297.63;;;18.03;48.23
18784;BME280;9520;50.954;6.968;2023-03-18T00:14:53;100303.88;;;18.02;48.36
18784;BME280;9520;50.954;6.968;2023-03-18T00:15:18;100309.84;;;18.07;48.22
18784;BME280;9520;50.954;6.968;2023-03-18T00:15:42;100306.94;;;18.12;48.22
18784;BME280;9520;50.954;6.968;2023-03-18T00:16:06;100327.91;;;18.20;48.22
18784;BME280;9520;50.954;6.968;2023-03-18T00:16:28;100296.69;;;18.04;48.37
18784;BME280;9520;50.954;6.968;2023-03-18T00:16:51;100353.81;;;18.35;48.38
18784;BME280;9520;50.954;6.968;2023-03-18T00:17:14;100348.63;;;18.32;48.28
18784;BME280;9520;50.954;6.968;2023-03-18T00:17:36;100349.56;;;18.31;48.41
18784;BME280;9520;50.954;6.968;2023-03-18T00:17:58;100352.16;;;18.32;48.33
18784;BME280;9520;50.954;6.968;2023-03-18T00:18:21;100330.25;;;18.26;48.46
18784;BME280;9520;50.954;6.968;2023-03-18T00:18:43;100353.81;;;18.35;48.34
18784;BME280;9520;50.954;6.968;2023-03-18T00:19:05;100333.72;;;18.28;48.12
18784;BME280;9520;50.954;6.968;2023-03-18T00:19:28;100337.94;;;18.32;48.45
18784;BME280;9520;50.954;6.968;2023-03-18T00:19:51;100320.53;;;18.25;48.04
18784;BME280;9520;50.954;6.968;2023-03-18T00:20:16;100350.91;;;18.39;48.10
18784;BME280;9520;50.954;6.968;2023-03-18T00:20:56;100299.09;;;18.09;48.53
18784;BME280;9520;50.954;6.968;2023-03-18T00:21:21;100352.22;;;18.31;48.49
18784;BME280;9520;50.954;6.968;2023-03-18T00:21:43;100324.28;;;18.21;48.32
18784;BME280;9520;50.954;6.968;2023-03-18T00:22:07;100352.09;;;18.34;48.21
18784;BME280;9520;50.954;6.968;2023-03-18T00:22:31;100301.59;;;18.12;48.27
18784;BME280;9520;50.954;6.968;2023-03-18T00:22:53;100307.75;;;18.14;48.46
18784;BME280;9520;50.954;6.968;2023-03-18T00:23:16;100299.03;;;18.10;48.39
18784;BME280;9520;50.954;6.968;2023-03-18T00:23:38;100348.72;;;18.30;48.28
18784;BME280;9520;50.954;6.968;2023-03-18T00:24:00;100328.28;;;18.12;48.70
18784;BME280;9520;50.954;6.968;2023-03-18T00:24:23;100351.16;;;18.18;48.82
18784;BME280;9520;50.954;6.968;2023-03-18T00:24:46;100259.00;;;17.76;48.69
18784;BME280;9520;50.954;6.968;2023-03-18T00:25:11;100321.97;;;18.15;48.87
18784;BME280;9520;50.954;6.968;2023-03-18T00:25:34;100288.91;;;18.00;48.57
18784;BME280;9520;50.954;6.968;2023-03-18T00:25:57;100331.34;;;18.22;48.67
18784;BME280;9520;50.954;6.968;2023-03-18T00:26:21;100350.44;;;18.31;48.65
18784;BME280;9520;50.954;6.968;2023-03-18T00:26:43;100302.03;;;18.04;48.69
18784;BME280;9520;50.954;6.968;2023-03-18T00:27:05;100301.09;;;18.05;48.47
18784;BME280;9520;50.954;6.968;2023-03-18T00:27:28;100350.97;;;18.38;48.51
18784;BME280;9520;50.954;6.968;2023-03-18T00:27:50;100346.44;;;18.40;48.38
18784;BME280;9520;50.954;6.968;2023-03-18T00:28:13;100345.47;;;18.41;48.51
18784;BME280;9520;50.954;6.968;2023-03-18T00:28:36;100281.69;;;18.02;48.46
18784;BME280;9520;50.954;6.968;2023-03-18T00:28:59;100349.09;;;18.23;48.76
18784;BME280;9520;50.954;6.968;2023-03-18T00:29:21;100338.84;;;18.15;48.84
18784;BME280;9520;50.954;6.968;2023-03-18T00:29:43;100356.25;;;18.22;48.91
18784;BME280;9520;50.954;6.968;2023-03-18T00:30:09;100354.28;;;18.26;48.75
18784;BME280;9520;50.954;6.968;2023-03-18T00:30:37;100260.72;;;17.77;48.71
18784;BME280;9520;50.954;6.968;2023-03-18T00:31:03;100349.31;;;18.35;48.90
18784;BME280;9520;50.954;6.968;2023-03-18T00:31:29;100306.31;;;18.07;48.66
18784;BME280;9520;50.954;6.968;2023-03-18T00:31:51;100331.53;;;18.19;48.72
18784;BME280;9520;50.954;6.968;2023-03-18T00:32:15;100349.41;;;18.34;48.77
18784;BME280;9520;50.954;6.968;2023-03-18T00:32:36;100303.66;;;18.07;48.68
18784;BME280;9520;50.954;6.968;2023-03-18T00:32:59;100341.41;;;18.34;48.67
18784;BME280;9520;50.954;6.968;2023-03-18T00:33:22;100308.13;;;18.06;48.84
18784;BME280;9520;50.954;6.968;2023-03-18T00:33:46;100322.47;;;18.21;48.87
18784;BME280;9520;50.954;6.968;2023-03-18T00:34:09;100340.59;;;18.32;48.84
18784;BME280;9520;50.954;6.968;2023-03-18T00:34:42;100324.44;;;18.18;49.01
18784;BME280;9520;50.954;6.968;2023-03-18T00:35:07;100339.97;;;18.27;49.11
18784;BME280;9520;50.954;6.968;2023-03-18T00:35:35;100319.91;;;18.20;48.91
18784;BME280;9520;50.954;6.968;2023-03-18T00:36:01;100333.53;;;18.31;48.98
18784;BME280;9520;50.954;6.968;2023-03-18T00:36:27;100329.00;;;18.33;48.91
18784;BME280;9520;50.954;6.968;2023-03-18T00:36:53;100332.53;;;18.33;48.82
18784;BME280;9520;50.954;6.968;2023-03-18T00:37:17;100310.09;;;18.20;48.99
18784;BME280;9520;50.954;6.968;2023-03-18T00:37:53;100283.97;;;18.09;48.84
18784;BME280;9520;50.954;6.968;2023-03-18T00:38:17;100321.41;;;18.25;49.01
18784;BME280;9520;50.954;6.968;2023-03-18T00:38:42;100318.72;;;18.25;49.13
18784;BME280;9520;50.954;6.968;2023-03-18T00:39:04;100302.47;;;18.12;49.02
18784;BME280;9520;50.954;6.968;2023-03-18T00:39:26;100286.00;;;18.04;49.03
18784;BME280;9520;50.954;6.968;2023-03-18T00:39:53;100292.09;;;18.06;48.99
18784;BME280;9520;50.954;6.968;2023-03-18T00:40:15;100292.97;;;18.07;49.14
18784;BME280;9520;50.954;6.968;2023-03-18T00:40:40;100333.63;;;18.29;49.19
18784;BME280;9520;50.954;6.968;2023-03-18T00:41:13;100331.84;;;18.30;48.90
18784;BME280;9520;50.954;6.968;2023-03-18T00:41:38;100330.88;;;18.31;49.03
18784;BME280;9520;50.954;6.968;2023-03-18T00:42:00;100320.19;;;18.31;49.02
18784;BME280;9520;50.954;6.968;2023-03-18T00:42:28;100317.94;;;18.23;49.05
18784;BME280;9520;50.954;6.968;2023-03-18T00:42:56;100322.03;;;18.30;49.01
18784;BME280;9520;50.954;6.968;2023-03-18T00:43:30;100313.28;;;18.27;49.00
18784;BME280;9520;50.954;6.968;2023-03-18T00:43:56;100321.91;;;18.32;49.14
18784;BME280;9520;50.954;6.968;2023-03-18T00:44:19;100324.53;;;18.33;48.98
18784;BME280;9520;50.954;6.968;2023-03-18T00:44:41;100322.78;;;18.32;49.01
18784;BME280;9520;50.954;6.968;2023-03-18T00:45:08;100319.44;;;18.29;49.00
18784;BME280;9520;50.954;6.968;2023-03-18T00:45:33;100322.16;;;18.27;49.04
18784;BME280;9520;50.954;6.968;2023-03-18T00:45:58;100324.06;;;18.25;49.29
18784;BME280;9520;50.954;6.968;2023-03-18T00:46:22;100329.16;;;18.30;49.28
18784;BME280;9520;50.954;6.968;2023-03-18T00:46:45;100334.34;;;18.33;49.04
18784;BME280;9520;50.954;6.968;2023-03-18T00:47:09;100328.38;;;18.28;49.10
18784;BME280;9520;50.954;6.968;2023-03-18T00:47:31;100338.75;;;18.34;48.97
18784;BME280;9520;50.954;6.968;2023-03-18T00:47:53;100338.81;;;18.32;49.05
18784;BME280;9520;50.954;6.968;2023-03-18T00:48:16;100336.38;;;18.28;49.33
18784;BME280;9520;50.954;6.968;2023-03-18T00:48:39;100337.25;;;18.28;49.26
18784;BME280;9520;50.954;6.968;2023-03-18T00:49:04;100342.59;;;18.28;49.27
18784;BME280;9520;50.954;6.968;2023-03-18T00:49:26;100340.72;;;18.30;49.30
18784;BME280;9520;50.954;6.968;2023-03-18T00:49:49;100340.94;;;18.26;49.46
18784;BME280;9520;50.954;6.968;2023-03-18T00:50:11;100347.06;;;18.28;49.34
18784;BME280;9520;50.954;6.968;2023-03-18T00:50:34;100350.84;;;18.24;49.55
18784;BME280;9520;50.954;6.968;2023-03-18T00:50:56;100349.28;;;18.20;49.62
18784;BME280;9520;50.954;6.968;2023-03-18T00:51:22;100356.19;;;18.24;49.23
18784;BME280;9520;50.954;6.968;2023-03-18T00:51:44;100351.59;;;18.26;49.30
18784;BME280;9520;50.954;6.968;2023-03-18T00:52:07;100346.06;;;18.30;49.47
18784;BME280;9520;50.954;6.968;2023-03-18T00:52:29;100333.09;;;18.23;49.51
18784;BME280;9520;50.954;6.968;2023-03-18T00:52:52;100351.41;;;18.30;49.40
18784;BME280;9520;50.954;6.968;2023-03-18T00:53:16;100351.16;;;18.35;49.23
18784;BME280;9520;50.954;6.968;2023-03-18T00:53:39;100349.56;;;18.31;49.22
18784;BME280;9520;50.954;6.968;2023-03-18T00:54:02;100333.16;;;18.21;49.20
18784;BME280;9520;50.954;6.968;2023-03-18T00:54:26;100348.31;;;18.38;49.29
18784;BME280;9520;50.954;6.968;2023-03-18T00:54:48;100347.38;;;18.39;49.19
18784;BME280;9520;50.954;6.968;2023-03-18T00:55:10;100346.44;;;18.40;49.37
18784;BME280;9520;50.954;6.968;2023-03-18T00:55:32;100341.88;;;18.25;49.51
18784;BME280;9520;50.954;6.968;2023-03-18T00:55:54;100343.59;;;18.26;49.62
18784;BME280;9520;50.954;6.968;2023-03-18T00:56:18;100343.59;;;18.26;49.68
18784;BME280;9520;50.954;6.968;2023-03-18T00:56:40;100348.94;;;18.26;49.69
18784;BME280;9520;50.954;6.968;2023-03-18T00:57:02;100349.91;;;18.25;49.69
18784;BME280;9520;50.954;6.968;2023-03-18T00:57:24;100342.75;;;18.25;49.47
18784;BME280;9520;50.954;6.968;2023-03-18T00:57:47;100339.97;;;18.27;49.73
18784;BME280;9520;50.954;6.968;2023-03-18T00:58:09;100342.03;;;18.22;49.58
18784;BME280;9520;50.954;6.968;2023-03-18T00:58:33;100343.59;;;18.26;49.60
18784;BME280;9520;50.954;6.968;2023-03-18T00:58:55;100338.50;;;18.21;49.77
18784;BME280;9520;50.954;6.968;2023-03-18T00:59:18;100341.09;;;18.23;49.85
18784;BME280;9520;50.954;6.968;2023-03-18T00:59:40;100336.69;;;18.22;49.86
18784;BME280;9520;50.954;6.968;2023-03-18T01:00:02;100338.44;;;18.23;49.79
18784;BME280;9520;50.954;6.968;2023-03-18T01:00:25;100338.66;;;18.18;49.99
18784;BME280;9520;50.954;6.968;2023-03-18T01:00:46;100330.22;;;18.10;50.03
18784;BME280;9520;50.954;6.968;2023-03-18T01:01:09;100336.16;;;18.15;49.89
18784;BME280;9520;50.954;6.968;2023-03-18T01:01:33;100337.81;;;18.18;49.85
18784;BME280;9520;50.954;6.968;2023-03-18T01:01:55;100337.88;;;18.16;50.00
18784;BME280;9520;50.954;6.968;2023-03-18T01:02:17;100326.09;;;18.03;50.13
18784;BME280;9520;50.954;6.968;2023-03-18T01:02:41;100347.69;;;18.16;49.96
18784;BME280;9520;50.954;6.968;2023-03-18T01:03:03;100339.53;;;18.19;49.83
18784;BME280;9520;50.954;6.968;2023-03-18T01:03:26;100340.31;;;18.21;49.85
18784;BME280;9520;50.954;6.968;2023-03-18T01:03:48;100344.06;;;18.17;50.06
18784;BME280;9520;50.954;6.968;2023-03-18T01:04:11;100344.06;;;18.17;50.17
18784;BME280;9520;50.954;6.968;2023-03-18T01:04:33;100345.81;;;18.18;50.05
18784;BME280;9520;50.954;6.968;2023-03-18T01:04:55;100346.59;;;18.20;50.22
18784;BME280;9520;50.954;6.968;2023-03-18T01:05:18;100340.22;;;18.22;50.04
18784;BME280;9520;50.954;6.968;2023-03-18T01:05:41;100345.44;;;18.25;49.78
18784;BME280;9520;50.954;6.968;2023-03-18T01:06:05;100346.59;;;18.20;50.01
18784;BME280;9520;50.954;6.968;2023-03-18T01:06:31;100338.59;;;18.20;49.91
18784;BME280;9520;50.954;6.968;2023-03-18T01:06:54;100322.88;;;18.13;49.92
18784;BME280;9520;50.954;6.968;2023-03-18T01:07:18;100345.50;;;18.24;50.07
18784;BME280;9520;50.954;6.968;2023-03-18T01:07:42;100333.94;;;18.23;49.92
18784;BME280;9520;50.954;6.968;2023-03-18T01:08:04;100338.44;;;18.23;49.97
18784;BME280;9520;50.954;6.968;2023-03-18T01:08:27;100320.59;;;18.06;50.00
18784;BME280;9520;50.954;6.968;2023-03-18T01:08:53;100348.94;;;18.26;49.98
18784;BME280;9520;50.954;6.968;2023-03-18T01:09:17;100339.47;;;18.20;49.98
18784;BME280;9520;50.954;6.968;2023-03-18T01:09:39;100351.94;;;18.20;50.20
18784;BME280;9520;50.954;6.968;2023-03-18T01:10:01;100344.06;;;18.17;50.12
18784;BME280;9520;50.954;6.968;2023-03-18T01:10:23;100345.88;;;18.16;50.20
18784;BME280;9520;50.954;6.968;2023-03-18T01:10:45;100347.28;;;18.06;50.30
18784;BME280;9520;50.954;6.968;2023-03-18T01:11:08;100353.19;;;17.95;50.75
18784;BME280;9520;50.954;6.968;2023-03-18T01:11:31;100340.47;;;17.83;50.98
18784;BME280;9520;50.954;6.968;2023-03-18T01:11:55;100341.91;;;17.90;50.96
18784;BME280;9520;50.954;6.968;2023-03-18T01:12:17;100340.09;;;17.91;50.77
18784;BME280;9520;50.954;6.968;2023-03-18T01:12:40;100348.63;;;17.80;50.94
18784;BME280;9520;50.954;6.968;2023-03-18T01:13:04;100341.16;;;17.87;51.09
18784;BME280;9520;50.954;6.968;2023-03-18T01:13:26;100343.53;;;17.93;50.91
18784;BME280;9520;50.954;6.968;2023-03-18T01:13:49;100328.63;;;17.89;50.82
18784;BME280;9520;50.954;6.968;2023-03-18T01:14:12;100333.72;;;17.93;50.99
18784;BME280;9520;50.954;6.968;2023-03-18T01:14:35;100340.78;;;17.94;51.02
18784;BME280;9520;50.954;6.968;2023-03-18T01:14:58;100329.50;;;17.89;51.08
18784;BME280;9520;50.954;6.968;2023-03-18T01:15:20;100329.41;;;17.91;51.04
18784;BME280;9520;50.954;6.968;2023-03-18T01:15:43;100330.59;;;17.85;51.16
18784;BME280;9520;50.954;6.968;2023-03-18T01:16:09;100331.22;;;17.90;51.21
18784;BME280;9520;50.954;6.968;2023-03-18T01:16:31;100325.66;;;17.95;50.93
18784;BME280;9520;50.954;6.968;2023-03-18T01:16:53;100327.16;;;18.00;51.03
18784;BME280;9520;50.954;6.968;2023-03-18T01:17:20;100331.44;;;18.03;50.83
18784;BME280;9520;50.954;6.968;2023-03-18T01:19:20;100325.09;;;18.05;50.72
18784;BME280;9520;50.954;6.968;2023-03-18T01:20:27;100330.91;;;18.13;50.60
18784;BME280;9520;50.954;6.968;2023-03-18T01:21:13;100324.94;;;18.08;50.55
18784;BME280;9520;50.954;6.968;2023-03-18T01:22:13;100323.81;;;18.12;50.70
18784;BME280;9520;50.954;6.968;2023-03-18T01:23:13;100322.88;;;18.13;50.61
18784;BME280;9520;50.954;6.968;2023-03-18T01:23:51;100325.31;;;18.18;50.36
18784;BME280;9520;50.954;6.968;2023-03-18T01:24:42;100328.22;;;18.13;50.55
18784;BME280;9520;50.954;6.968;2023-03-18T01:25:43;100323.66;;;18.16;50.38
18784;BME280;9520;50.954;6.968;2023-03-18T01:26:59;100338.13;;;18.29;50.34
18784;BME280;9520;50.954;6.968;2023-03-18T01:27:46;100341.88;;;18.25;50.43
18784;BME280;9520;50.954;6.968;2023-03-18T01:28:21;100339.97;;;18.27;50.23
18784;BME280;9520;50.954;6.968;2023-03-18T01:29:05;100339.84;;;18.30;50.24
18784;BME280;9520;50.954;6.968;2023-03-18T01:30:07;100343.13;;;18.35;50.16
18784;BME280;9520;50.954;6.968;2023-03-18T01:31:01;100344.94;;;18.34;49.97
18784;BME280;9520;50.954;6.968;2023-03-18T01:31:46;100341.78;;;18.26;50.30
18784;BME280;9520;50.954;6.968;2023-03-18T01:32:58;100340.78;;;18.11;50.66
18784;BME280;9520;50.954;6.968;2023-03-18T01:34:08;100347.69;;;18.16;50.89
18784;BME280;9520;50.954;6.968;2023-03-18T01:35:21;100338.91;;;18.13;50.57
18784;BME280;9520;50.954;6.968;2023-03-18T01:36:36;100355.56;;;18.19;50.66
18784;BME280;9520;50.954;6.968;2023-03-18T01:39:24;100349.09;;;18.23;50.43
18784;BME280;9520;50.954;6.968;2023-03-18T01:40:40;100333.94;;;18.23;50.52
18784;BME280;9520;50.954;6.968;2023-03-18T01:41:48;100336.56;;;18.25;50.59
18784;BME280;9520;50.954;6.968;2023-03-18T01:42:32;100347.75;;;18.31;50.39
18784;BME280;9520;50.954;6.968;2023-03-18T01:44:47;100339.97;;;18.27;50.44
18784;BME280;9520;50.954;6.968;2023-03-18T01:45:48;100337.25;;;18.28;50.46
18784;BME280;9520;50.954;6.968;2023-03-18T01:46:56;100320.69;;;18.22;50.60
18784;BME280;9520;50.954;6.968;2023-03-18T01:47:52;100327.91;;;18.20;50.72
18784;BME280;9520;50.954;6.968;2023-03-18T01:49:12;100321.34;;;18.09;50.77
18784;BME280;9520;50.954;6.968;2023-03-18T01:50:02;100321.34;;;18.09;50.87
18784;BME280;9520;50.954;6.968;2023-03-18T01:50:28;100329.56;;;18.05;51.16
18784;BME280;9520;50.954;6.968;2023-03-18T01:50:54;100329.56;;;18.05;51.10
18784;BME280;9520;50.954;6.968;2023-03-18T01:51:18;100319.44;;;17.94;51.47
18784;BME280;9520;50.954;6.968;2023-03-18T01:51:42;100319.50;;;17.93;51.44
18784;BME280;9520;50.954;6.968;2023-03-18T01:52:10;100319.13;;;18.00;51.18
18784;BME280;9520;50.954;6.968;2023-03-18T01:52:33;100326.97;;;18.03;51.33
18784;BME280;9520;50.954;6.968;2023-03-18T01:52:59;100325.00;;;18.07;51.26
18784;BME280;9520;50.954;6.968;2023-03-18T01:53:22;100319.59;;;18.08;51.18
18784;BME280;9520;50.954;6.968;2023-03-18T01:53:46;100314.94;;;18.12;51.10
18784;BME280;9520;50.954;6.968;2023-03-18T01:54:11;100316.94;;;18.08;51.05
18784;BME280;9520;50.954;6.968;2023-03-18T01:54:37;100312.38;;;18.10;50.99
18784;BME280;9520;50.954;6.968;2023-03-18T01:55:05;100302.22;;;18.17;50.88
18784;BME280;9520;50.954;6.968;2023-03-18T01:55:30;100305.06;;;18.14;50.97
18784;BME280;9520;50.954;6.968;2023-03-18T01:55:54;100298.00;;;18.13;50.74
18784;BME280;9520;50.954;6.968;2023-03-18T01:56:19;100303.03;;;18.19;50.89
18784;BME280;9520;50.954;6.968;2023-03-18T01:56:44;100296.56;;;18.23;51.05
18784;BME280;9520;50.954;6.968;2023-03-18T01:57:06;100305.53;;;18.22;50.61
18784;BME280;9520;50.954;6.968;2023-03-18T01:57:29;100308.13;;;18.24;50.85
18784;BME280;9520;50.954;6.968;2023-03-18T01:57:53;100316.06;;;18.25;50.61
18784;BME280;9520;50.954;6.968;2023-03-18T01:58:20;100300.03;;;18.25;50.51
18784;BME280;9520;50.954;6.968;2023-03-18T01:58:45;100307.00;;;18.28;50.63
18784;BME280;9520;50.954;6.968;2023-03-18T01:59:08;100313.03;;;18.31;50.51
18784;BME280;9520;50.954;6.968;2023-03-18T01:59:38;100305.81;;;18.33;50.45
18784;BME280;9520;50.954;6.968;2023-03-18T02:00:02;100302.97;;;18.36;50.48
18784;BME280;9520;50.954;6.968;2023-03-18T02:00:36;100307.47;;;18.36;50.16
18784;BME280;9520;50.954;6.968;2023-03-18T02:01:08;100301.19;;;18.37;50.35
18784;BME280;9520;50.954;6.968;2023-03-18T02:01:34;100298.56;;;18.35;50.46
18784;BME280;9520;50.954;6.968;2023-03-18T02:02:02;100301.19;;;18.37;50.25
18784;BME280;9520;50.954;6.968;2023-03-18T02:02:27;100302.03;;;18.37;50.22
18784;BME280;9520;50.954;6.968;2023-03-18T02:02:51;100291.78;;;18.30;50.22
18784;BME280;9520;50.954;6.968;2023-03-18T02:03:14;100300.66;;;18.13;50.57
18784;BME280;9520;50.954;6.968;2023-03-18T02:03:37;100310.16;;;18.19;50.61
18784;BME280;9520;50.954;6.968;2023-03-18T02:04:09;100309.53;;;18.13;50.91
18784;BME280;9520;50.954;6.968;2023-03-18T02:07:19;100321.22;;;18.28;50.53
18784;BME280;9520;50.954;6.968;2023-03-18T02:08:08;100313.28;;;18.27;50.53
18784;BME280;9520;50.954;6.968;2023-03-18T02:09:12;100321.78;;;18.18;50.84
18784;BME280;9520;50.954;6.968;2023-03-18T02:10:10;100325.31;;;18.18;50.93
18784;BME280;9520;50.954;6.968;2023-03-18T02:10:53;100334.88;;;18.22;50.60
18784;BME280;9520;50.954;6.968;2023-03-18T02:13:40;100328.53;;;18.07;50.87
18784;BME280;9520;50.954;6.968;2023-03-18T02:14:50;100319.78;;;18.05;50.91
18784;BME280;9520;50.954;6.968;2023-03-18T02:15:15;100326.75;;;18.08;51.02
18784;BME280;9520;50.954;6.968;2023-03-18T02:15:51;100328.41;;;18.10;50.79
18784;BME280;9520;50.954;6.968;2023-03-18T02:16:19;100309.22;;;18.02;50.89
18784;BME280;9520;50.954;6.968;2023-03-18T02:16:46;100287.31;;;17.96;51.02
18784;BME280;9520;50.954;6.968;2023-03-18T02:17:12;100283.88;;;17.94;50.74
18784;BME280;9520;50.954;6.968;2023-03-18T02:17:40;100296.81;;;18.01;50.68
18784;BME280;9520;50.954;6.968;2023-03-18T02:18:07;100317.31;;;18.18;50.71
18784;BME280;9520;50.954;6.968;2023-03-18T02:18:33;100319.66;;;18.24;50.80
18784;BME280;9520;50.954;6.968;2023-03-18T02:18:59;100306.63;;;18.18;50.47
18784;BME280;9520;50.954;6.968;2023-03-18T02:19:33;100290.97;;;17.95;50.51
18784;BME280;9520;50.954;6.968;2023-03-18T02:20:09;100287.00;;;18.02;50.70
18784;BME280;9520;50.954;6.968;2023-03-18T02:20:49;100230.44;;;17.78;50.60
18784;BME280;9520;50.954;6.968;2023-03-18T02:21:27;100310.31;;;18.16;50.74
18784;BME280;9520;50.954;6.968;2023-03-18T02:22:00;100323.19;;;18.25;50.67
18784;BME280;9520;50.954;6.968;2023-03-18T02:22:28;100326.13;;;18.20;50.71
18784;BME280;9520;50.954;6.968;2023-03-18T02:22:56;100321.53;;;18.22;50.74
18784;BME280;9520;50.954;6.968;2023-03-18T02:23:25;100315.06;;;18.10;50.84
18784;BME280;9520;50.954;6.968;2023-03-18T02:23:54;100319.28;;;18.15;50.98
18784;BME280;9520;50.954;6.968;2023-03-18T02:24:26;100322.25;;;18.08;51.04
18784;BME280;9520;50.954;6.968;2023-03-18T02:25:00;100311.66;;;18.07;50.92
18784;BME280;9520;50.954;6.968;2023-03-18T02:25:34;100310.66;;;18.09;50.77
18784;BME280;9520;50.954;6.968;2023-03-18T02:26:07;100313.78;;;18.18;50.72
18784;BME280;9520;50.954;6.968;2023-03-18T02:26:37;100305.31;;;18.09;50.75
18784;BME280;9520;50.954;6.968;2023-03-18T02:27:11;100313.06;;;18.14;50.92
18784;BME280;9520;50.954;6.968;2023-03-18T02:27:36;100317.06;;;18.23;50.67
18784;BME280;9520;50.954;6.968;2023-03-18T02:28:02;100315.03;;;18.28;50.48
18784;BME280;9520;50.954;6.968;2023-03-18T02:28:29;100313.28;;;18.27;50.48
18784;BME280;9520;50.954;6.968;2023-03-18T02:28:55;100309.69;;;18.28;50.39
18784;BME280;9520;50.954;6.968;2023-03-18T02:29:20;100313.91;;;18.32;50.44
18784;BME280;9520;50.954;6.968;2023-03-18T02:29:52;100319.34;;;18.30;50.11
18784;BME280;9520;50.954;6.968;2023-03-18T02:30:18;100309.50;;;18.31;50.20
18784;BME280;9520;50.954;6.968;2023-03-18T02:30:46;100313.91;;;18.32;50.21
18784;BME280;9520;50.954;6.968;2023-03-18T02:31:13;100317.44;;;18.32;50.29
18784;BME280;9520;50.954;6.968;2023-03-18T02:31:41;100313.84;;;18.33;50.25
18784;BME280;9520;50.954;6.968;2023-03-18T02:32:27;100298.22;;;18.26;50.36
18784;BME280;9520;50.954;6.968;2023-03-18T02:34:10;100298.06;;;18.29;50.47
18784;BME280;9520;50.954;6.968;2023-03-18T02:36:17;100304.13;;;18.15;50.83
18784;BME280;9520;50.954;6.968;2023-03-18T02:38:15;100308.38;;;18.02;51.15
18784;BME280;9520;50.954;6.968;2023-03-18T02:39:06;100308.47;;;18.00;51.03
18784;BME280;9520;50.954;6.968;2023-03-18T02:40:41;100313.31;;;18.09;51.01
18784;BME280;9520;50.954;6.968;2023-03-18T02:42:50;100305.31;;;18.09;50.92
18784;BME280;9520;50.954;6.968;2023-03-18T02:43:31;100311.34;;;18.13;50.94
18784;BME280;9520;50.954;6.968;2023-03-18T02:44:29;100301.84;;;18.07;50.69
18784;BME280;9520;50.954;6.968;2023-03-18T02:45:43;100302.88;;;18.05;50.88
18784;BME280;9520;50.954;6.968;2023-03-18T02:46:47;100318.81;;;18.06;50.96
18784;BME280;9520;50.954;6.968;2023-03-18T02:47:48;100319.03;;;18.02;51.13
18784;BME280;9520;50.954;6.968;2023-03-18T02:49:06;100319.44;;;17.94;51.25
18784;BME280;9520;50.954;6.968;2023-03-18T02:50:20;100320.69;;;18.04;50.89
18784;BME280;9520;50.954;6.968;2023-03-18T02:51:09;100308.78;;;17.94;51.19
18784;BME280;9520;50.954;6.968;2023-03-18T02:52:04;100312.59;;;18.06;51.02
18784;BME280;9520;50.954;6.968;2023-03-18T02:52:47;100320.59;;;18.06;50.79
18784;BME280;9520;50.954;6.968;2023-03-18T02:53:16;100316.31;;;18.03;51.17
18784;BME280;9520;50.954;6.968;2023-03-18T02:53:39;100316.53;;;17.99;51.06
18784;BME280;9520;50.954;6.968;2023-03-18T02:54:04;100318.16;;;18.01;51.09
18784;BME280;9520;50.954;6.968;2023-03-18T02:54:29;100311.34;;;17.96;51.17
18784;BME280;9520;50.954;6.968;2023-03-18T02:54:51;100319.03;;;18.02;51.08
18784;BME280;9520;50.954;6.968;2023-03-18T02:55:13;100319.03;;;18.02;51.17
18784;BME280;9520;50.954;6.968;2023-03-18T02:55:35;100310.50;;;17.95;51.15
18784;BME280;9520;50.954;6.968;2023-03-18T02:55:57;100319.03;;;18.02;51.14
18784;BME280;9520;50.954;6.968;2023-03-18T02:56:20;100330.44;;;18.05;50.99
18784;BME280;9520;50.954;6.968;2023-03-18T02:56:42;100318.09;;;18.03;50.73
18784;BME280;9520;50.954;6.968;2023-03-18T02:57:04;100321.41;;;18.08;50.83
18784;BME280;9520;50.954;6.968;2023-03-18T02:57:26;100322.25;;;18.08;50.96